sensor_id;sensor_type;location;lat;lon;timestamp;pressure;altitude;pressure_sealevel;temperature;humidity
4836;BME280;2432;51.226;6.904;2022-10-16T00:00:40;100417.22;;;13.28;100.00
4836;BME280;2432;51.226;6.904;2022-10-16T00:03:07;100425.13;;;13.28;100.00
4836;BME280;2432;51.226;6.904;2022-10-16T00:05:38;100405.91;;;13.26;100.00
4836;BME280;2432;51.226;6.904;2022-10-16T00:08:06;100405.84;;;13.27;100.00
4836;BME280;2432;51.226;6.904;2022-10-16T00:10:33;100417.34;;;13.25;100.00
4836;BME280;2432;51.226;6.904;2022-10-16T00:12:59;100427.00;;;13.24;100.00
4836;BME280;2432;51.226;6.904;2022-10-16T00:15:26;100420.13;;;13.20;100.00
4836;BME280;2432;51.226;6.904;2022-10-16T00:17:53;100418.44;;;13.18;100.00
4836;BME280;2432;51.226;6.904;2022-10-16T00:20:19;100422.81;;;13.17;100.00
4836;BME280;2432;51.226;6.904;2022-10-16T00:22:45;100435.13;;;13.17;100.00
4836;BME280;2432;51.226;6.904;2022-10-16T00:25:12;100445.75;;;13.14;100.00
4836;BME280;2432;51.226;6.904;2022-10-16T00:27:38;100436.34;;;13.07;100.00
4836;BME280;2432;51.226;6.904;2022-10-16T00:30:05;100438.13;;;13.06;100.00
4836;BME280;2432;51.226;6.904;2022-10-16T00:32:34;100434.56;;;13.07;100.00
4836;BME280;2432;51.226;6.904;2022-10-16T00:35:00;100432.75;;;13.09;100.00
4836;BME280;2432;51.226;6.904;2022-10-16T00:37:27;100429.38;;;13.06;100.00
4836;BME280;2432;51.226;6.904;2022-10-16T00:39:53;100426.06;;;12.99;100.00
4836;BME280;2432;51.226;6.904;2022-10-16T00:42:20;100425.09;;;13.01;100.00
4836;BME280;2432;51.226;6.904;2022-10-16T00:44:48;100424.25;;;13.01;100.00
4836;BME280;2432;51.226;6.904;2022-10-16T00:47:24;100425.09;;;13.01;100.00
4836;BME280;2432;51.226;6.904;2022-10-16T00:49:57;100425.09;;;13.03;100.00
4836;BME280;2432;51.226;6.904;2022-10-16T00:52:25;100425.97;;;13.02;100.00
4836;BME280;2432;51.226;6.904;2022-10-16T00:54:53;100422.47;;;13.01;100.00
4836;BME280;2432;51.226;6.904;2022-10-16T00:57:20;100421.78;;;12.96;100.00
4836;BME280;2432;51.226;6.904;2022-10-16T00:59:47;100425.59;;;12.88;100.00
4836;BME280;2432;51.226;6.904;2022-10-16T01:02:15;100423.09;;;12.83;100.00
4836;BME280;2432;51.226;6.904;2022-10-16T01:04:46;100422.53;;;12.73;100.00
4836;BME280;2432;51.226;6.904;2022-10-16T01:10:25;100414.66;;;12.73;100.00
4836;BME280;2432;51.226;6.904;2022-10-16T01:13:12;100427.00;;;12.71;100.00
4836;BME280;2432;51.226;6.904;2022-10-16T01:15:47;100428.03;;;12.66;100.00
4836;BME280;2432;51.226;6.904;2022-10-16T01:18:38;100443.00;;;12.64;100.00
4836;BME280;2432;51.226;6.904;2022-10-16T01:21:12;100441.50;;;12.55;100.00
4836;BME280;2432;51.226;6.904;2022-10-16T01:29:25;100447.50;;;12.60;100.00
4836;BME280;2432;51.226;6.904;2022-10-16T01:31:59;100440.41;;;12.62;100.00
4836;BME280;2432;51.226;6.904;2022-10-16T01:34:38;100436.06;;;12.61;100.00
4836;BME280;2432;51.226;6.904;2022-10-16T01:37:14;100436.88;;;12.63;100.00
4836;BME280;2432;51.226;6.904;2022-10-16T01:39:45;100447.44;;;12.62;100.00
4836;BME280;2432;51.226;6.904;2022-10-16T01:42:19;100434.16;;;12.66;100.00
4836;BME280;2432;51.226;6.904;2022-10-16T01:44:48;100430.59;;;12.67;100.00
4836;BME280;2432;51.226;6.904;2022-10-16T01:47:17;100434.91;;;12.70;100.00
4836;BME280;2432;51.226;6.904;2022-10-16T01:49:46;100434.09;;;12.68;100.00
4836;BME280;2432;51.226;6.904;2022-10-16T01:52:16;100441.91;;;12.71;100.00
4836;BME280;2432;51.226;6.904;2022-10-16T01:54:46;100441.94;;;12.69;100.00
4836;BME280;2432;51.226;6.904;2022-10-16T01:57:14;100446.19;;;12.73;100.00
4836;BME280;2432;51.226;6.904;2022-10-16T01:59:48;100453.22;;;12.73;100.00
4836;BME280;2432;51.226;6.904;2022-10-16T02:02:18;100447.16;;;12.71;100.00
4836;BME280;2432;51.226;6.904;2022-10-16T02:04:51;100439.97;;;12.76;100.00
4836;BME280;2432;51.226;6.904;2022-10-16T02:07:19;100443.38;;;12.80;100.00
4836;BME280;2432;51.226;6.904;2022-10-16T02:09:46;100435.44;;;12.81;100.00
4836;BME280;2432;51.226;6.904;2022-10-16T02:12:25;100436.28;;;12.82;100.00
4836;BME280;2432;51.226;6.904;2022-10-16T02:14:53;100439.72;;;12.84;100.00
4836;BME280;2432;51.226;6.904;2022-10-16T02:17:20;100431.84;;;12.84;100.00
4836;BME280;2432;51.226;6.904;2022-10-16T02:19:48;100451.91;;;12.86;100.00
4836;BME280;2432;51.226;6.904;2022-10-16T02:22:24;100450.09;;;12.88;100.00
4836;BME280;2432;51.226;6.904;2022-10-16T02:25:05;100448.25;;;12.90;100.00
4836;BME280;2432;51.226;6.904;2022-10-16T02:27:45;100447.34;;;12.91;100.00
4836;BME280;2432;51.226;6.904;2022-10-16T02:32:44;100457.91;;;12.90;100.00
4836;BME280;2432;51.226;6.904;2022-10-16T02:35:12;100453.47;;;12.92;100.00
4836;BME280;2432;51.226;6.904;2022-10-16T02:37:40;100457.88;;;12.91;100.00
4836;BME280;2432;51.226;6.904;2022-10-16T02:40:08;100464.88;;;12.91;100.00
4836;BME280;2432;51.226;6.904;2022-10-16T02:42:36;100452.53;;;12.94;100.00
4836;BME280;2432;51.226;6.904;2022-10-16T02:45:05;100468.31;;;12.93;100.00
4836;BME280;2432;51.226;6.904;2022-10-16T02:47:31;100455.19;;;12.93;100.00
4836;BME280;2432;51.226;6.904;2022-10-16T02:49:58;100461.28;;;12.93;100.00
4836;BME280;2432;51.226;6.904;2022-10-16T02:52:24;100450.78;;;12.93;100.00
4836;BME280;2432;51.226;6.904;2022-10-16T02:54:51;100448.16;;;12.93;100.00
4836;BME280;2432;51.226;6.904;2022-10-16T02:57:18;100443.75;;;12.94;100.00
4836;BME280;2432;51.226;6.904;2022-10-16T02:59:45;100460.44;;;12.93;100.00
4836;BME280;2432;51.226;6.904;2022-10-16T03:02:11;100464.84;;;12.92;100.00
4836;BME280;2432;51.226;6.904;2022-10-16T03:04:38;100463.19;;;12.90;100.00
4836;BME280;2432;51.226;6.904;2022-10-16T03:07:04;100452.59;;;12.91;100.00
4836;BME280;2432;51.226;6.904;2022-10-16T03:09:31;100468.44;;;12.90;100.00
4836;BME280;2432;51.226;6.904;2022-10-16T03:11:57;100471.13;;;12.88;100.00
4836;BME280;2432;51.226;6.904;2022-10-16T03:14:24;100464.16;;;12.87;100.00
4836;BME280;2432;51.226;6.904;2022-10-16T03:16:51;100458.06;;;12.85;100.00
4836;BME280;2432;51.226;6.904;2022-10-16T03:19:17;100453.69;;;12.86;100.00
4836;BME280;2432;51.226;6.904;2022-10-16T03:21:44;100452.78;;;12.85;100.00
4836;BME280;2432;51.226;6.904;2022-10-16T03:24:11;100448.44;;;12.86;100.00
4836;BME280;2432;51.226;6.904;2022-10-16T03:26:37;100437.19;;;12.81;100.00
4836;BME280;2432;51.226;6.904;2022-10-16T03:29:04;100442.50;;;12.79;100.00
4836;BME280;2432;51.226;6.904;2022-10-16T03:31:31;100455.53;;;12.82;100.00
4836;BME280;2432;51.226;6.904;2022-10-16T03:33:58;100465.28;;;12.79;100.00
4836;BME280;2432;51.226;6.904;2022-10-16T03:36:24;100462.63;;;12.80;100.00
4836;BME280;2432;51.226;6.904;2022-10-16T03:38:51;100461.75;;;12.80;100.00
4836;BME280;2432;51.226;6.904;2022-10-16T03:41:17;100467.00;;;12.80;100.00
4836;BME280;2432;51.226;6.904;2022-10-16T03:43:43;100449.53;;;12.79;100.00
4836;BME280;2432;51.226;6.904;2022-10-16T03:46:10;100461.75;;;12.80;100.00
4836;BME280;2432;51.226;6.904;2022-10-16T03:48:36;100463.59;;;12.78;100.00
4836;BME280;2432;51.226;6.904;2022-10-16T03:51:03;100461.03;;;12.74;100.00
4836;BME280;2432;51.226;6.904;2022-10-16T03:53:29;100459.22;;;12.77;100.00
4836;BME280;2432;51.226;6.904;2022-10-16T03:55:56;100468.06;;;12.74;100.00
4836;BME280;2432;51.226;6.904;2022-10-16T03:58:22;100470.91;;;12.66;100.00
4836;BME280;2432;51.226;6.904;2022-10-16T04:00:48;100471.78;;;12.67;100.00
4836;BME280;2432;51.226;6.904;2022-10-16T04:03:15;100476.28;;;12.63;100.00
4836;BME280;2432;51.226;6.904;2022-10-16T04:05:42;100476.38;;;12.60;100.00
4836;BME280;2432;51.226;6.904;2022-10-16T04:08:08;100482.50;;;12.61;100.00
4836;BME280;2432;51.226;6.904;2022-10-16T04:10:34;100486.09;;;12.57;100.00
4836;BME280;2432;51.226;6.904;2022-10-16T04:13:01;100475.72;;;12.54;100.00
4836;BME280;2432;51.226;6.904;2022-10-16T04:15:27;100481.72;;;12.57;100.00
4836;BME280;2432;51.226;6.904;2022-10-16T04:17:54;100488.84;;;12.54;100.00
4836;BME280;2432;51.226;6.904;2022-10-16T04:20:20;100492.44;;;12.51;100.00
4836;BME280;2432;51.226;6.904;2022-10-16T04:22:47;100498.59;;;12.49;100.00
4836;BME280;2432;51.226;6.904;2022-10-16T04:25:13;100497.00;;;12.44;100.00
4836;BME280;2432;51.226;6.904;2022-10-16T04:27:40;100505.81;;;12.42;100.00
4836;BME280;2432;51.226;6.904;2022-10-16T04:30:11;100516.25;;;12.45;100.00
4836;BME280;2432;51.226;6.904;2022-10-16T04:32:37;100518.06;;;12.43;100.00
4836;BME280;2432;51.226;6.904;2022-10-16T04:35:04;100518.88;;;12.45;100.00
4836;BME280;2432;51.226;6.904;2022-10-16T04:37:31;100511.91;;;12.44;100.00
4836;BME280;2432;51.226;6.904;2022-10-16T04:39:57;100519.81;;;12.42;100.00
4836;BME280;2432;51.226;6.904;2022-10-16T04:42:24;100518.19;;;12.38;100.00
4836;BME280;2432;51.226;6.904;2022-10-16T04:44:50;100505.91;;;12.39;100.00
4836;BME280;2432;51.226;6.904;2022-10-16T04:47:16;100510.19;;;12.43;100.00
4836;BME280;2432;51.226;6.904;2022-10-16T04:49:43;100505.81;;;12.42;100.00
4836;BME280;2432;51.226;6.904;2022-10-16T04:52:09;100510.25;;;12.40;100.00
4836;BME280;2432;51.226;6.904;2022-10-16T04:54:36;100519.03;;;12.39;100.00
4836;BME280;2432;51.226;6.904;2022-10-16T04:57:02;100527.81;;;12.38;100.00
4836;BME280;2432;51.226;6.904;2022-10-16T04:59:29;100527.88;;;12.36;100.00
4836;BME280;2432;51.226;6.904;2022-10-16T05:01:55;100534.97;;;12.33;100.00
4836;BME280;2432;51.226;6.904;2022-10-16T05:04:22;100538.44;;;12.33;100.00
4836;BME280;2432;51.226;6.904;2022-10-16T05:06:48;100531.47;;;12.32;100.00
4836;BME280;2432;51.226;6.904;2022-10-16T05:09:15;100530.66;;;12.30;100.00
4836;BME280;2432;51.226;6.904;2022-10-16T05:11:41;100535.91;;;12.30;100.00
4836;BME280;2432;51.226;6.904;2022-10-16T05:14:07;100545.66;;;12.27;100.00
4836;BME280;2432;51.226;6.904;2022-10-16T05:16:34;100546.50;;;12.27;100.00
4836;BME280;2432;51.226;6.904;2022-10-16T05:19:00;100548.28;;;12.27;100.00
4836;BME280;2432;51.226;6.904;2022-10-16T05:21:47;100550.03;;;12.26;100.00
4836;BME280;2432;51.226;6.904;2022-10-16T05:24:13;100558.00;;;12.23;100.00
4836;BME280;2432;51.226;6.904;2022-10-16T05:26:40;100565.91;;;12.22;100.00
4836;BME280;2432;51.226;6.904;2022-10-16T05:29:06;100570.31;;;12.21;100.00
4836;BME280;2432;51.226;6.904;2022-10-16T05:31:33;100568.53;;;12.22;100.00
4836;BME280;2432;51.226;6.904;2022-10-16T05:34:00;100562.47;;;12.20;100.00
4836;BME280;2432;51.226;6.904;2022-10-16T05:36:26;100554.56;;;12.21;100.00
4836;BME280;2432;51.226;6.904;2022-10-16T05:38:53;100559.75;;;12.23;100.00
4836;BME280;2432;51.226;6.904;2022-10-16T05:41:20;100561.63;;;12.19;100.00
4836;BME280;2432;51.226;6.904;2022-10-16T05:43:49;100566.91;;;12.18;100.00
4836;BME280;2432;51.226;6.904;2022-10-16T05:46:16;100575.72;;;12.15;100.00
4836;BME280;2432;51.226;6.904;2022-10-16T05:48:43;100580.16;;;12.13;100.00
4836;BME280;2432;51.226;6.904;2022-10-16T05:51:11;100590.59;;;12.14;100.00
4836;BME280;2432;51.226;6.904;2022-10-16T05:53:39;100588.06;;;12.11;100.00
4836;BME280;2432;51.226;6.904;2022-10-16T05:56:09;100590.75;;;12.10;100.00
4836;BME280;2432;51.226;6.904;2022-10-16T05:58:37;100596.84;;;12.10;100.00
4836;BME280;2432;51.226;6.904;2022-10-16T06:01:07;100589.78;;;12.12;100.00
4836;BME280;2432;51.226;6.904;2022-10-16T06:03:34;100592.47;;;12.11;100.00
4836;BME280;2432;51.226;6.904;2022-10-16T06:06:10;100608.25;;;12.09;100.00
4836;BME280;2432;51.226;6.904;2022-10-16T06:08:38;100609.16;;;12.08;100.00
4836;BME280;2432;51.226;6.904;2022-10-16T06:11:08;100616.13;;;12.09;100.00
4836;BME280;2432;51.226;6.904;2022-10-16T06:13:35;100620.53;;;12.09;100.00
4836;BME280;2432;51.226;6.904;2022-10-16T06:16:03;100616.03;;;12.12;100.00
4836;BME280;2432;51.226;6.904;2022-10-16T06:18:29;100623.91;;;12.12;100.00
4836;BME280;2432;51.226;6.904;2022-10-16T06:20:56;100617.00;;;12.10;100.00
4836;BME280;2432;51.226;6.904;2022-10-16T06:23:23;100624.06;;;12.08;100.00
4836;BME280;2432;51.226;6.904;2022-10-16T06:25:50;100626.69;;;12.08;100.00
4836;BME280;2432;51.226;6.904;2022-10-16T06:28:17;100621.44;;;12.06;100.00
4836;BME280;2432;51.226;6.904;2022-10-16T06:30:43;100633.59;;;12.10;100.00
4836;BME280;2432;51.226;6.904;2022-10-16T06:33:11;100631.78;;;12.12;100.00
4836;BME280;2432;51.226;6.904;2022-10-16T06:35:37;100619.47;;;12.14;100.00
4836;BME280;2432;51.226;6.904;2022-10-16T06:38:04;100629.06;;;12.17;100.00
4836;BME280;2432;51.226;6.904;2022-10-16T06:40:30;100628.19;;;12.16;100.00
4836;BME280;2432;51.226;6.904;2022-10-16T06:42:57;100635.16;;;12.18;100.00
4836;BME280;2432;51.226;6.904;2022-10-16T06:45:23;100637.75;;;12.19;100.00
4836;BME280;2432;51.226;6.904;2022-10-16T06:47:50;100649.97;;;12.20;100.00
4836;BME280;2432;51.226;6.904;2022-10-16T06:50:16;100657.78;;;12.22;100.00
4836;BME280;2432;51.226;6.904;2022-10-16T06:52:43;100666.47;;;12.25;100.00
4836;BME280;2432;51.226;6.904;2022-10-16T06:55:09;100665.47;;;12.29;100.00
4836;BME280;2432;51.226;6.904;2022-10-16T06:57:35;100670.59;;;12.34;100.00
4836;BME280;2432;51.226;6.904;2022-10-16T07:00:03;100674.84;;;12.38;100.00
4836;BME280;2432;51.226;6.904;2022-10-16T07:02:29;100670.38;;;12.41;100.00
4836;BME280;2432;51.226;6.904;2022-10-16T07:04:56;100681.63;;;12.47;100.00
4836;BME280;2432;51.226;6.904;2022-10-16T07:07:23;100686.84;;;12.48;100.00
4836;BME280;2432;51.226;6.904;2022-10-16T07:09:52;100699.06;;;12.49;100.00
4836;BME280;2432;51.226;6.904;2022-10-16T07:12:19;100692.19;;;12.45;100.00
4836;BME280;2432;51.226;6.904;2022-10-16T07:14:45;100704.41;;;12.46;100.00
4836;BME280;2432;51.226;6.904;2022-10-16T07:17:12;100702.69;;;12.45;100.00
4836;BME280;2432;51.226;6.904;2022-10-16T07:19:38;100708.84;;;12.44;100.00
4836;BME280;2432;51.226;6.904;2022-10-16T07:22:04;100707.13;;;12.43;100.00
4836;BME280;2432;51.226;6.904;2022-10-16T07:24:31;100703.59;;;12.44;100.00
4836;BME280;2432;51.226;6.904;2022-10-16T07:26:57;100715.00;;;12.43;100.00
4836;BME280;2432;51.226;6.904;2022-10-16T07:29:24;100710.59;;;12.43;100.00
4836;BME280;2432;51.226;6.904;2022-10-16T07:31:50;100718.50;;;12.43;100.00
4836;BME280;2432;51.226;6.904;2022-10-16T07:34:18;100725.50;;;12.43;100.00
4836;BME280;2432;51.226;6.904;2022-10-16T07:36:48;100731.63;;;12.42;100.00
4836;BME280;2432;51.226;6.904;2022-10-16T07:39:14;100738.63;;;12.43;100.00
4836;BME280;2432;51.226;6.904;2022-10-16T07:41:41;100741.25;;;12.43;100.00
4836;BME280;2432;51.226;6.904;2022-10-16T07:44:07;100746.50;;;12.43;100.00
4836;BME280;2432;51.226;6.904;2022-10-16T07:46:34;100746.47;;;12.44;100.00
4836;BME280;2432;51.226;6.904;2022-10-16T07:49:03;100752.56;;;12.45;100.00
4836;BME280;2432;51.226;6.904;2022-10-16T07:51:29;100749.13;;;12.43;100.00
4836;BME280;2432;51.226;6.904;2022-10-16T07:53:56;100756.16;;;12.42;100.00
4836;BME280;2432;51.226;6.904;2022-10-16T07:56:22;100757.75;;;12.48;100.00
4836;BME280;2432;51.226;6.904;2022-10-16T07:58:50;100759.41;;;12.51;100.00
4836;BME280;2432;51.226;6.904;2022-10-16T08:01:17;100765.38;;;12.57;100.00
4836;BME280;2432;51.226;6.904;2022-10-16T08:03:45;100770.38;;;12.66;100.00
4836;BME280;2432;51.226;6.904;2022-10-16T08:06:12;100778.22;;;12.68;100.00
4836;BME280;2432;51.226;6.904;2022-10-16T08:08:39;100775.34;;;12.79;100.00
4836;BME280;2432;51.226;6.904;2022-10-16T08:11:06;100777.78;;;12.85;100.00
4836;BME280;2432;51.226;6.904;2022-10-16T08:13:32;100773.28;;;12.90;100.00
4836;BME280;2432;51.226;6.904;2022-10-16T08:15:59;100790.47;;;13.01;100.00
4836;BME280;2432;51.226;6.904;2022-10-16T08:18:26;100784.28;;;13.02;100.00
4836;BME280;2432;51.226;6.904;2022-10-16T08:20:57;100789.28;;;13.13;100.00
4836;BME280;2432;51.226;6.904;2022-10-16T08:23:24;100794.25;;;13.24;100.00
4836;BME280;2432;51.226;6.904;2022-10-16T08:25:54;100797.03;;;13.18;100.00
4836;BME280;2432;51.226;6.904;2022-10-16T08:28:22;100799.63;;;13.19;100.00
4836;BME280;2432;51.226;6.904;2022-10-16T08:30:49;100795.03;;;13.27;100.00
4836;BME280;2432;51.226;6.904;2022-10-16T08:33:15;100800.22;;;13.31;100.00
4836;BME280;2432;51.226;6.904;2022-10-16T08:35:41;100806.84;;;13.44;100.00
4836;BME280;2432;51.226;6.904;2022-10-16T08:38:08;100811.00;;;13.51;100.00
4836;BME280;2432;51.226;6.904;2022-10-16T08:40:36;100816.16;;;13.55;100.00
4836;BME280;2432;51.226;6.904;2022-10-16T08:43:20;100816.22;;;13.52;100.00
4836;BME280;2432;51.226;6.904;2022-10-16T08:48:22;100822.19;;;13.59;100.00
4836;BME280;2432;51.226;6.904;2022-10-16T08:50:52;100829.09;;;13.62;100.00
4836;BME280;2432;51.226;6.904;2022-10-16T08:53:24;100830.53;;;13.73;100.00
4836;BME280;2432;51.226;6.904;2022-10-16T08:55:53;100834.63;;;13.83;100.00
4836;BME280;2432;51.226;6.904;2022-10-16T08:58:23;100835.53;;;13.81;100.00
4836;BME280;2432;51.226;6.904;2022-10-16T09:01:01;100839.81;;;13.85;100.00
4836;BME280;2432;51.226;6.904;2022-10-16T09:03:42;100837.94;;;13.89;100.00
4836;BME280;2432;51.226;6.904;2022-10-16T09:06:25;100837.81;;;13.93;100.00
4836;BME280;2432;51.226;6.904;2022-10-16T09:12:00;100843.09;;;14.21;100.00
4836;BME280;2432;51.226;6.904;2022-10-16T09:19:54;100861.63;;;14.46;100.00
4836;BME280;2432;51.226;6.904;2022-10-16T09:22:26;100858.16;;;14.46;100.00
4836;BME280;2432;51.226;6.904;2022-10-16T09:24:56;100856.13;;;14.54;100.00
4836;BME280;2432;51.226;6.904;2022-10-16T09:27:26;100859.44;;;14.59;100.00
4836;BME280;2432;51.226;6.904;2022-10-16T09:29:53;100862.81;;;14.64;100.00
4836;BME280;2432;51.226;6.904;2022-10-16T09:32:25;100865.19;;;14.72;100.00
4836;BME280;2432;51.226;6.904;2022-10-16T09:34:54;100868.88;;;14.66;100.00
4836;BME280;2432;51.226;6.904;2022-10-16T09:37:23;100873.94;;;14.98;100.00
4836;BME280;2432;51.226;6.904;2022-10-16T09:39:54;100872.34;;;14.94;100.00
4836;BME280;2432;51.226;6.904;2022-10-16T09:42:27;100875.56;;;15.03;100.00
4836;BME280;2432;51.226;6.904;2022-10-16T09:44:54;100874.09;;;14.94;100.00
4836;BME280;2432;51.226;6.904;2022-10-16T09:47:23;100881.97;;;14.95;100.00
4836;BME280;2432;51.226;6.904;2022-10-16T09:50:04;100877.13;;;15.08;100.00
4836;BME280;2432;51.226;6.904;2022-10-16T09:52:32;100874.88;;;15.22;100.00
4836;BME280;2432;51.226;6.904;2022-10-16T09:55:13;100874.47;;;15.08;100.00
4836;BME280;2432;51.226;6.904;2022-10-16T09:57:53;100871.78;;;15.10;100.00
4836;BME280;2432;51.226;6.904;2022-10-16T10:00:22;100872.88;;;15.04;100.00
4836;BME280;2432;51.226;6.904;2022-10-16T10:02:49;100869.28;;;15.07;100.00
4836;BME280;2432;51.226;6.904;2022-10-16T10:05:25;100864.38;;;15.21;100.00
4836;BME280;2432;51.226;6.904;2022-10-16T10:07:59;100882.13;;;15.16;100.00
4836;BME280;2432;51.226;6.904;2022-10-16T10:10:29;100882.94;;;15.18;100.00
4836;BME280;2432;51.226;6.904;2022-10-16T10:12:56;100879.38;;;15.19;100.00
4836;BME280;2432;51.226;6.904;2022-10-16T10:15:24;100874.34;;;15.13;100.00
4836;BME280;2432;51.226;6.904;2022-10-16T10:17:57;100867.34;;;15.12;100.00
4836;BME280;2432;51.226;6.904;2022-10-16T10:22:57;100877.56;;;15.21;100.00
4836;BME280;2432;51.226;6.904;2022-10-16T10:31:07;100881.69;;;15.28;100.00
4836;BME280;2432;51.226;6.904;2022-10-16T10:34:04;100880.09;;;15.24;100.00
4836;BME280;2432;51.226;6.904;2022-10-16T10:36:41;100868.81;;;15.20;100.00
4836;BME280;2432;51.226;6.904;2022-10-16T10:39:18;100873.56;;;15.09;100.00
4836;BME280;2432;51.226;6.904;2022-10-16T10:41:55;100874.22;;;15.16;100.00
4836;BME280;2432;51.226;6.904;2022-10-16T10:50:26;100884.66;;;15.19;100.00
4836;BME280;2432;51.226;6.904;2022-10-16T10:53:03;100882.88;;;15.19;100.00
4836;BME280;2432;51.226;6.904;2022-10-16T10:56:05;100884.56;;;15.22;100.00
4836;BME280;2432;51.226;6.904;2022-10-16T11:01:12;100896.97;;;15.43;100.00
4836;BME280;2432;51.226;6.904;2022-10-16T11:04:22;100901.34;;;15.44;100.00
4836;BME280;2432;51.226;6.904;2022-10-16T11:06:52;100901.72;;;15.34;100.00
4836;BME280;2432;51.226;6.904;2022-10-16T11:09:25;100896.41;;;15.35;100.00
4836;BME280;2432;51.226;6.904;2022-10-16T11:12:00;100899.28;;;15.29;100.00
4836;BME280;2432;51.226;6.904;2022-10-16T11:14:35;100895.81;;;15.27;100.00
4836;BME280;2432;51.226;6.904;2022-10-16T11:17:11;100905.66;;;15.47;100.00
4836;BME280;2432;51.226;6.904;2022-10-16T11:19:46;100894.56;;;15.37;100.00
4836;BME280;2432;51.226;6.904;2022-10-16T11:22:20;100899.41;;;15.49;100.00
4836;BME280;2432;51.226;6.904;2022-10-16T11:27:37;100894.47;;;15.65;100.00
4836;BME280;2432;51.226;6.904;2022-10-16T11:30:14;100895.22;;;15.69;100.00
4836;BME280;2432;51.226;6.904;2022-10-16T11:32:53;100900.44;;;15.94;100.00
4836;BME280;2432;51.226;6.904;2022-10-16T11:35:42;100894.06;;;15.99;100.00
4836;BME280;2432;51.226;6.904;2022-10-16T11:38:18;100890.81;;;16.15;100.00
4836;BME280;2432;51.226;6.904;2022-10-16T11:40:50;100893.09;;;16.02;100.00
4836;BME280;2432;51.226;6.904;2022-10-16T11:43:35;100890.91;;;15.90;100.00
4836;BME280;2432;51.226;6.904;2022-10-16T11:46:24;100902.16;;;15.71;100.00
4836;BME280;2432;51.226;6.904;2022-10-16T11:48:57;100901.00;;;15.78;100.00
4836;BME280;2432;51.226;6.904;2022-10-16T11:52:42;100902.06;;;15.74;100.00
4836;BME280;2432;51.226;6.904;2022-10-16T11:54:56;100904.50;;;16.02;100.00
4836;BME280;2432;51.226;6.904;2022-10-16T11:57:39;100899.47;;;15.96;100.00
4836;BME280;2432;51.226;6.904;2022-10-16T12:00:18;100906.22;;;16.03;100.00
4836;BME280;2432;51.226;6.904;2022-10-16T12:08:23;100906.34;;;15.77;100.00
4836;BME280;2432;51.226;6.904;2022-10-16T12:10:50;100901.06;;;15.77;100.00
4836;BME280;2432;51.226;6.904;2022-10-16T12:13:38;100909.66;;;16.05;100.00
4836;BME280;2432;51.226;6.904;2022-10-16T12:18:42;100906.84;;;16.33;100.00
4836;BME280;2432;51.226;6.904;2022-10-16T12:21:10;100902.81;;;16.23;100.00
4836;BME280;2432;51.226;6.904;2022-10-16T12:23:51;100904.78;;;16.18;100.00
4836;BME280;2432;51.226;6.904;2022-10-16T12:26:30;100906.94;;;16.30;100.00
4836;BME280;2432;51.226;6.904;2022-10-16T12:29:13;100905.78;;;16.37;100.00
4836;BME280;2432;51.226;6.904;2022-10-16T12:31:45;100912.59;;;16.21;100.00
4836;BME280;2432;51.226;6.904;2022-10-16T12:34:36;100915.44;;;16.17;100.00
4836;BME280;2432;51.226;6.904;2022-10-16T12:37:11;100902.25;;;16.15;100.00
4836;BME280;2432;51.226;6.904;2022-10-16T12:39:39;100902.44;;;16.32;100.00
4836;BME280;2432;51.226;6.904;2022-10-16T12:44:46;100899.44;;;16.63;100.00
4836;BME280;2432;51.226;6.904;2022-10-16T12:47:21;100908.91;;;16.91;100.00
4836;BME280;2432;51.226;6.904;2022-10-16T12:49:53;100910.38;;;16.98;100.00
4836;BME280;2432;51.226;6.904;2022-10-16T12:52:29;100903.63;;;17.11;100.00
4836;BME280;2432;51.226;6.904;2022-10-16T12:55:01;100909.84;;;17.10;100.00
4836;BME280;2432;51.226;6.904;2022-10-16T13:00:44;100912.44;;;16.91;100.00
4836;BME280;2432;51.226;6.904;2022-10-16T13:06:22;100913.25;;;17.14;100.00
4836;BME280;2432;51.226;6.904;2022-10-16T13:09:23;100914.16;;;16.92;100.00
4836;BME280;2432;51.226;6.904;2022-10-16T13:12:39;100912.41;;;16.71;100.00
4836;BME280;2432;51.226;6.904;2022-10-16T13:15:24;100906.47;;;16.64;100.00
4836;BME280;2432;51.226;6.904;2022-10-16T13:20:44;100912.41;;;17.13;100.00
4836;BME280;2432;51.226;6.904;2022-10-16T13:23:25;100905.91;;;17.20;100.00
4836;BME280;2432;51.226;6.904;2022-10-16T13:28:47;100916.22;;;16.86;100.00
4836;BME280;2432;51.226;6.904;2022-10-16T13:31:21;100916.84;;;16.91;100.00
4836;BME280;2432;51.226;6.904;2022-10-16T13:33:52;100927.47;;;16.69;100.00
4836;BME280;2432;51.226;6.904;2022-10-16T13:36:33;100913.41;;;16.69;100.00
4836;BME280;2432;51.226;6.904;2022-10-16T13:39:10;100906.53;;;16.63;100.00
4836;BME280;2432;51.226;6.904;2022-10-16T13:41:37;100905.81;;;16.59;100.00
4836;BME280;2432;51.226;6.904;2022-10-16T13:44:05;100910.41;;;16.54;100.00
4836;BME280;2432;51.226;6.904;2022-10-16T13:46:38;100911.88;;;16.83;100.00
4836;BME280;2432;51.226;6.904;2022-10-16T13:49:17;100901.13;;;16.88;100.00
4836;BME280;2432;51.226;6.904;2022-10-16T13:51:58;100909.72;;;16.93;100.00
4836;BME280;2432;51.226;6.904;2022-10-16T13:54:26;100913.81;;;17.00;100.00
4836;BME280;2432;51.226;6.904;2022-10-16T13:56:55;100916.06;;;16.89;100.00
4836;BME280;2432;51.226;6.904;2022-10-16T13:59:36;100913.28;;;16.92;100.00
4836;BME280;2432;51.226;6.904;2022-10-16T14:04:46;100918.78;;;16.87;100.00
4836;BME280;2432;51.226;6.904;2022-10-16T14:07:25;100914.47;;;16.85;100.00
4836;BME280;2432;51.226;6.904;2022-10-16T14:09:53;100918.53;;;16.72;100.00
4836;BME280;2432;51.226;6.904;2022-10-16T14:12:21;100921.53;;;16.62;100.00
4836;BME280;2432;51.226;6.904;2022-10-16T14:14:54;100919.06;;;16.58;100.00
4836;BME280;2432;51.226;6.904;2022-10-16T14:19:55;100943.84;;;16.33;100.00
4836;BME280;2432;51.226;6.904;2022-10-16T14:22:31;100933.44;;;16.29;100.00
4836;BME280;2432;51.226;6.904;2022-10-16T14:24:59;100933.59;;;16.24;100.00
4836;BME280;2432;51.226;6.904;2022-10-16T14:27:33;100900.94;;;16.27;100.00